sensor_id;sensor_type;location;lat;lon;timestamp;P1;durP1;ratioP1;P2;durP2;ratioP2
46889;SDS011;32625;51.080;16.970;2022-09-09T00:00:15;11.13;;;9.88;;
46889;SDS011;32625;51.080;16.970;2022-09-09T00:02:49;11.10;;;10.00;;
46889;SDS011;32625;51.080;16.970;2022-09-09T00:14:48;12.45;;;10.27;;
46889;SDS011;32625;51.080;16.970;2022-09-09T00:26:39;10.15;;;9.07;;
46889;SDS011;32625;51.080;16.970;2022-09-09T00:32:29;11.70;;;8.68;;
46889;SDS011;32625;51.080;16.970;2022-09-09T00:35:10;9.43;;;8.32;;
46889;SDS011;32625;51.080;16.970;2022-09-09T00:37:45;10.68;;;7.88;;
46889;SDS011;32625;51.080;16.970;2022-09-09T01:01:22;8.02;;;7.35;;
46889;SDS011;32625;51.080;16.970;2022-09-09T01:07:19;9.65;;;8.77;;
46889;SDS011;32625;51.080;16.970;2022-09-09T01:12:42;6.95;;;6.25;;
46889;SDS011;32625;51.080;16.970;2022-09-09T01:15:30;6.68;;;6.07;;
46889;SDS011;32625;51.080;16.970;2022-09-09T01:18:02;6.70;;;6.07;;
46889;SDS011;32625;51.080;16.970;2022-09-09T01:27:08;7.55;;;6.45;;
46889;SDS011;32625;51.080;16.970;2022-09-09T01:29:39;7.72;;;7.10;;
46889;SDS011;32625;51.080;16.970;2022-09-09T01:41:11;11.93;;;7.30;;
46889;SDS011;32625;51.080;16.970;2022-09-09T01:44:11;7.32;;;6.72;;
46889;SDS011;32625;51.080;16.970;2022-09-09T01:46:41;7.95;;;7.30;;
46889;SDS011;32625;51.080;16.970;2022-09-09T01:49:28;10.77;;;7.57;;
46889;SDS011;32625;51.080;16.970;2022-09-09T01:51:56;8.38;;;7.45;;
46889;SDS011;32625;51.080;16.970;2022-09-09T01:54:35;8.52;;;7.82;;
46889;SDS011;32625;51.080;16.970;2022-09-09T02:09:00;9.32;;;8.48;;
46889;SDS011;32625;51.080;16.970;2022-09-09T02:11:42;10.70;;;9.70;;
46889;SDS011;32625;51.080;16.970;2022-09-09T02:14:25;8.88;;;8.00;;
46889;SDS011;32625;51.080;16.970;2022-09-09T02:17:01;11.27;;;8.27;;
46889;SDS011;32625;51.080;16.970;2022-09-09T02:20:14;8.38;;;7.55;;
46889;SDS011;32625;51.080;16.970;2022-09-09T02:22:49;11.15;;;9.13;;
46889;SDS011;32625;51.080;16.970;2022-09-09T02:25:19;8.55;;;7.70;;
46889;SDS011;32625;51.080;16.970;2022-09-09T02:27:59;10.52;;;7.82;;
46889;SDS011;32625;51.080;16.970;2022-09-09T02:30:32;9.27;;;8.38;;
46889;SDS011;32625;51.080;16.970;2022-09-09T02:36:40;10.65;;;9.32;;
46889;SDS011;32625;51.080;16.970;2022-09-09T02:39:11;11.60;;;10.52;;
46889;SDS011;32625;51.080;16.970;2022-09-09T02:41:42;12.40;;;11.23;;
46889;SDS011;32625;51.080;16.970;2022-09-09T02:44:11;11.25;;;9.25;;
46889;SDS011;32625;51.080;16.970;2022-09-09T02:46:58;12.07;;;11.07;;
46889;SDS011;32625;51.080;16.970;2022-09-09T02:52:13;9.52;;;8.60;;
46889;SDS011;32625;51.080;16.970;2022-09-09T02:58:01;8.68;;;7.97;;
46889;SDS011;32625;51.080;16.970;2022-09-09T03:03:58;10.30;;;9.30;;
46889;SDS011;32625;51.080;16.970;2022-09-09T03:06:26;11.77;;;9.57;;
46889;SDS011;32625;51.080;16.970;2022-09-09T03:12:27;11.15;;;8.77;;
46889;SDS011;32625;51.080;16.970;2022-09-09T03:15:03;11.63;;;8.07;;
46889;SDS011;32625;51.080;16.970;2022-09-09T03:17:31;9.57;;;8.82;;
46889;SDS011;32625;51.080;16.970;2022-09-09T03:19:59;11.93;;;9.20;;
46889;SDS011;32625;51.080;16.970;2022-09-09T03:23:08;11.98;;;10.95;;
46889;SDS011;32625;51.080;16.970;2022-09-09T03:25:48;9.85;;;8.85;;
46889;SDS011;32625;51.080;16.970;2022-09-09T03:28:27;12.13;;;11.05;;
46889;SDS011;32625;51.080;16.970;2022-09-09T03:31:03;9.32;;;7.82;;
46889;SDS011;32625;51.080;16.970;2022-09-09T03:33:37;9.13;;;8.30;;
46889;SDS011;32625;51.080;16.970;2022-09-09T03:36:06;9.73;;;6.88;;
46889;SDS011;32625;51.080;16.970;2022-09-09T03:38:37;8.10;;;7.40;;
46889;SDS011;32625;51.080;16.970;2022-09-09T03:41:06;9.55;;;7.72;;
46889;SDS011;32625;51.080;16.970;2022-09-09T03:43:36;9.30;;;8.43;;
46889;SDS011;32625;51.080;16.970;2022-09-09T03:46:04;12.93;;;8.70;;
46889;SDS011;32625;51.080;16.970;2022-09-09T03:48:58;9.55;;;8.75;;
46889;SDS011;32625;51.080;16.970;2022-09-09T03:51:31;9.73;;;8.88;;
46889;SDS011;32625;51.080;16.970;2022-09-09T03:54:19;12.02;;;10.93;;
46889;SDS011;32625;51.080;16.970;2022-09-09T03:56:46;9.07;;;8.32;;
46889;SDS011;32625;51.080;16.970;2022-09-09T04:02:14;9.07;;;8.30;;
46889;SDS011;32625;51.080;16.970;2022-09-09T04:04:42;9.35;;;8.45;;
46889;SDS011;32625;51.080;16.970;2022-09-09T04:07:10;8.25;;;7.45;;
46889;SDS011;32625;51.080;16.970;2022-09-09T04:09:39;8.98;;;7.82;;
46889;SDS011;32625;51.080;16.970;2022-09-09T04:15:04;8.88;;;7.97;;
46889;SDS011;32625;51.080;16.970;2022-09-09T04:17:35;11.95;;;9.00;;
46889;SDS011;32625;51.080;16.970;2022-09-09T04:20:07;10.10;;;8.85;;
46889;SDS011;32625;51.080;16.970;2022-09-09T04:22:39;10.15;;;8.05;;
46889;SDS011;32625;51.080;16.970;2022-09-09T04:25:10;10.50;;;8.40;;
46889;SDS011;32625;51.080;16.970;2022-09-09T04:27:38;8.02;;;7.18;;
46889;SDS011;32625;51.080;16.970;2022-09-09T04:30:06;12.48;;;8.80;;
46889;SDS011;32625;51.080;16.970;2022-09-09T04:32:35;8.90;;;8.00;;
46889;SDS011;32625;51.080;16.970;2022-09-09T04:35:05;8.88;;;7.97;;
46889;SDS011;32625;51.080;16.970;2022-09-09T04:37:33;10.10;;;7.40;;
46889;SDS011;32625;51.080;16.970;2022-09-09T04:40:00;11.10;;;7.95;;
46889;SDS011;32625;51.080;16.970;2022-09-09T04:42:35;9.77;;;8.88;;
46889;SDS011;32625;51.080;16.970;2022-09-09T04:45:05;7.97;;;7.28;;
46889;SDS011;32625;51.080;16.970;2022-09-09T04:50:06;8.85;;;8.05;;
46889;SDS011;32625;51.080;16.970;2022-09-09T04:52:35;11.07;;;8.35;;
46889;SDS011;32625;51.080;16.970;2022-09-09T04:55:09;8.48;;;7.78;;
46889;SDS011;32625;51.080;16.970;2022-09-09T04:57:37;8.68;;;7.85;;
46889;SDS011;32625;51.080;16.970;2022-09-09T05:00:05;8.75;;;7.95;;
46889;SDS011;32625;51.080;16.970;2022-09-09T05:02:37;8.98;;;8.18;;
46889;SDS011;32625;51.080;16.970;2022-09-09T05:05:10;9.02;;;7.32;;
46889;SDS011;32625;51.080;16.970;2022-09-09T05:07:38;8.18;;;7.40;;
46889;SDS011;32625;51.080;16.970;2022-09-09T05:10:12;11.55;;;7.38;;
46889;SDS011;32625;51.080;16.970;2022-09-09T05:12:55;12.00;;;7.85;;
46889;SDS011;32625;51.080;16.970;2022-09-09T05:18:21;8.10;;;7.30;;
46889;SDS011;32625;51.080;16.970;2022-09-09T05:20:49;7.68;;;6.95;;
46889;SDS011;32625;51.080;16.970;2022-09-09T05:23:17;8.55;;;7.05;;
46889;SDS011;32625;51.080;16.970;2022-09-09T05:25:53;8.40;;;7.65;;
46889;SDS011;32625;51.080;16.970;2022-09-09T05:28:25;7.97;;;7.28;;
46889;SDS011;32625;51.080;16.970;2022-09-09T05:30:56;8.60;;;7.68;;
46889;SDS011;32625;51.080;16.970;2022-09-09T05:33:33;9.35;;;8.35;;
46889;SDS011;32625;51.080;16.970;2022-09-09T05:36:05;9.93;;;7.90;;
46889;SDS011;32625;51.080;16.970;2022-09-09T05:38:34;9.45;;;8.00;;
46889;SDS011;32625;51.080;16.970;2022-09-09T05:41:03;9.45;;;8.63;;
46889;SDS011;32625;51.080;16.970;2022-09-09T05:43:30;13.00;;;11.80;;
46889;SDS011;32625;51.080;16.970;2022-09-09T05:48:33;11.40;;;10.40;;
46889;SDS011;32625;51.080;16.970;2022-09-09T05:51:04;9.95;;;9.05;;
46889;SDS011;32625;51.080;16.970;2022-09-09T05:53:35;12.88;;;8.88;;
46889;SDS011;32625;51.080;16.970;2022-09-09T05:56:14;11.93;;;8.80;;
46889;SDS011;32625;51.080;16.970;2022-09-09T05:58:43;9.38;;;8.38;;
46889;SDS011;32625;51.080;16.970;2022-09-09T06:01:14;10.07;;;9.18;;
46889;SDS011;32625;51.080;16.970;2022-09-09T06:03:45;11.43;;;8.60;;
46889;SDS011;32625;51.080;16.970;2022-09-09T06:06:15;10.85;;;9.85;;
46889;SDS011;32625;51.080;16.970;2022-09-09T06:08:48;10.38;;;8.55;;
46889;SDS011;32625;51.080;16.970;2022-09-09T06:11:21;10.40;;;9.32;;
46889;SDS011;32625;51.080;16.970;2022-09-09T06:13:51;8.88;;;7.78;;
46889;SDS011;32625;51.080;16.970;2022-09-09T06:16:21;9.18;;;8.30;;
46889;SDS011;32625;51.080;16.970;2022-09-09T06:18:50;11.43;;;8.82;;
46889;SDS011;32625;51.080;16.970;2022-09-09T06:21:30;9.85;;;9.05;;
46889;SDS011;32625;51.080;16.970;2022-09-09T06:24:06;10.27;;;9.25;;
46889;SDS011;32625;51.080;16.970;2022-09-09T06:26:38;11.52;;;10.45;;
46889;SDS011;32625;51.080;16.970;2022-09-09T06:29:10;9.93;;;8.93;;
46889;SDS011;32625;51.080;16.970;2022-09-09T06:31:40;10.60;;;9.50;;
46889;SDS011;32625;51.080;16.970;2022-09-09T06:34:18;9.85;;;8.85;;
46889;SDS011;32625;51.080;16.970;2022-09-09T06:36:51;10.32;;;9.32;;
46889;SDS011;32625;51.080;16.970;2022-09-09T06:39:18;12.27;;;11.02;;
46889;SDS011;32625;51.080;16.970;2022-09-09T06:41:45;14.27;;;10.20;;
46889;SDS011;32625;51.080;16.970;2022-09-09T06:44:32;12.23;;;10.57;;
46889;SDS011;32625;51.080;16.970;2022-09-09T06:47:03;11.75;;;10.55;;
46889;SDS011;32625;51.080;16.970;2022-09-09T06:49:32;12.88;;;11.60;;
46889;SDS011;32625;51.080;16.970;2022-09-09T06:52:01;15.05;;;11.70;;
46889;SDS011;32625;51.080;16.970;2022-09-09T06:54:30;9.82;;;8.93;;
46889;SDS011;32625;51.080;16.970;2022-09-09T06:56:57;8.82;;;7.50;;
46889;SDS011;32625;51.080;16.970;2022-09-09T06:59:47;10.45;;;7.93;;
46889;SDS011;32625;51.080;16.970;2022-09-09T07:02:14;10.15;;;9.15;;
46889;SDS011;32625;51.080;16.970;2022-09-09T07:04:42;9.50;;;8.60;;
46889;SDS011;32625;51.080;16.970;2022-09-09T07:07:09;10.05;;;7.53;;
46889;SDS011;32625;51.080;16.970;2022-09-09T07:09:47;8.98;;;6.55;;
46889;SDS011;32625;51.080;16.970;2022-09-09T07:12:15;8.68;;;7.88;;
46889;SDS011;32625;51.080;16.970;2022-09-09T07:14:54;8.27;;;7.47;;
46889;SDS011;32625;51.080;16.970;2022-09-09T07:17:21;10.27;;;8.25;;
46889;SDS011;32625;51.080;16.970;2022-09-09T07:19:49;14.25;;;6.30;;
46889;SDS011;32625;51.080;16.970;2022-09-09T07:25:09;12.05;;;7.05;;
46889;SDS011;32625;51.080;16.970;2022-09-09T07:27:37;14.75;;;5.05;;
46889;SDS011;32625;51.080;16.970;2022-09-09T07:30:11;6.78;;;4.97;;
46889;SDS011;32625;51.080;16.970;2022-09-09T07:32:45;6.93;;;3.08;;
46889;SDS011;32625;51.080;16.970;2022-09-09T07:35:13;3.90;;;3.60;;
46889;SDS011;32625;51.080;16.970;2022-09-09T07:37:40;4.40;;;3.97;;
46889;SDS011;32625;51.080;16.970;2022-09-09T07:40:07;5.45;;;3.47;;
46889;SDS011;32625;51.080;16.970;2022-09-09T07:42:35;5.53;;;3.13;;
46889;SDS011;32625;51.080;16.970;2022-09-09T07:45:03;4.75;;;3.25;;
46889;SDS011;32625;51.080;16.970;2022-09-09T07:47:32;4.93;;;3.05;;
46889;SDS011;32625;51.080;16.970;2022-09-09T07:50:00;6.13;;;3.55;;
46889;SDS011;32625;51.080;16.970;2022-09-09T07:52:30;4.78;;;2.42;;
46889;SDS011;32625;51.080;16.970;2022-09-09T07:55:01;6.63;;;3.00;;
46889;SDS011;32625;51.080;16.970;2022-09-09T07:57:32;5.63;;;3.30;;
46889;SDS011;32625;51.080;16.970;2022-09-09T07:59:59;6.80;;;4.68;;
46889;SDS011;32625;51.080;16.970;2022-09-09T08:02:27;5.70;;;3.88;;
46889;SDS011;32625;51.080;16.970;2022-09-09T08:04:57;3.58;;;3.28;;
46889;SDS011;32625;51.080;16.970;2022-09-09T08:07:25;5.53;;;3.42;;
46889;SDS011;32625;51.080;16.970;2022-09-09T08:09:53;7.22;;;3.28;;
46889;SDS011;32625;51.080;16.970;2022-09-09T08:12:27;4.23;;;2.77;;
46889;SDS011;32625;51.080;16.970;2022-09-09T08:14:55;6.97;;;3.30;;
46889;SDS011;32625;51.080;16.970;2022-09-09T08:17:26;5.07;;;2.47;;
46889;SDS011;32625;51.080;16.970;2022-09-09T08:20:01;5.72;;;2.88;;
46889;SDS011;32625;51.080;16.970;2022-09-09T08:22:34;7.15;;;3.10;;
46889;SDS011;32625;51.080;16.970;2022-09-09T08:25:01;6.25;;;2.30;;
46889;SDS011;32625;51.080;16.970;2022-09-09T08:27:31;5.35;;;2.85;;
46889;SDS011;32625;51.080;16.970;2022-09-09T08:29:59;4.53;;;2.72;;
46889;SDS011;32625;51.080;16.970;2022-09-09T08:32:28;3.85;;;2.92;;
46889;SDS011;32625;51.080;16.970;2022-09-09T08:34:55;3.22;;;2.10;;
46889;SDS011;32625;51.080;16.970;2022-09-09T08:37:29;4.45;;;2.30;;
46889;SDS011;32625;51.080;16.970;2022-09-09T08:39:56;5.45;;;2.08;;
46889;SDS011;32625;51.080;16.970;2022-09-09T08:48:09;4.28;;;2.50;;
46889;SDS011;32625;51.080;16.970;2022-09-09T08:50:50;4.75;;;2.05;;
46889;SDS011;32625;51.080;16.970;2022-09-09T08:53:27;5.57;;;3.65;;
46889;SDS011;32625;51.080;16.970;2022-09-09T08:56:00;3.13;;;2.70;;
46889;SDS011;32625;51.080;16.970;2022-09-09T08:58:48;4.05;;;2.00;;
46889;SDS011;32625;51.080;16.970;2022-09-09T09:04:03;4.57;;;2.20;;
46889;SDS011;32625;51.080;16.970;2022-09-09T09:09:21;4.15;;;2.13;;
46889;SDS011;32625;51.080;16.970;2022-09-09T09:12:01;2.97;;;1.60;;
46889;SDS011;32625;51.080;16.970;2022-09-09T09:14:35;4.13;;;2.00;;
46889;SDS011;32625;51.080;16.970;2022-09-09T09:17:10;3.65;;;2.22;;
46889;SDS011;32625;51.080;16.970;2022-09-09T09:19:43;4.95;;;2.10;;
46889;SDS011;32625;51.080;16.970;2022-09-09T09:22:18;3.67;;;2.10;;
46889;SDS011;32625;51.080;16.970;2022-09-09T09:27:33;2.58;;;1.88;;
46889;SDS011;32625;51.080;16.970;2022-09-09T09:30:13;4.80;;;2.20;;
46889;SDS011;32625;51.080;16.970;2022-09-09T09:35:31;5.03;;;1.80;;
46889;SDS011;32625;51.080;16.970;2022-09-09T09:38:24;4.68;;;2.15;;
46889;SDS011;32625;51.080;16.970;2022-09-09T09:41:14;3.30;;;1.80;;
46889;SDS011;32625;51.080;16.970;2022-09-09T09:43:42;4.88;;;2.00;;
46889;SDS011;32625;51.080;16.970;2022-09-09T09:46:23;3.65;;;1.70;;
46889;SDS011;32625;51.080;16.970;2022-09-09T09:49:01;9.43;;;2.10;;
46889;SDS011;32625;51.080;16.970;2022-09-09T09:51:33;2.92;;;1.85;;
46889;SDS011;32625;51.080;16.970;2022-09-09T09:56:53;6.55;;;1.95;;
46889;SDS011;32625;51.080;16.970;2022-09-09T10:04:44;4.00;;;3.17;;
46889;SDS011;32625;51.080;16.970;2022-09-09T10:07:20;3.28;;;1.88;;
46889;SDS011;32625;51.080;16.970;2022-09-09T10:09:50;5.30;;;2.20;;
46889;SDS011;32625;51.080;16.970;2022-09-09T10:15:06;4.20;;;1.55;;
46889;SDS011;32625;51.080;16.970;2022-09-09T10:26:25;9.10;;;2.90;;
46889;SDS011;32625;51.080;16.970;2022-09-09T10:29:26;4.03;;;1.90;;
46889;SDS011;32625;51.080;16.970;2022-09-09T10:37:37;5.28;;;1.60;;
46889;SDS011;32625;51.080;16.970;2022-09-09T10:40:32;2.63;;;1.60;;
46889;SDS011;32625;51.080;16.970;2022-09-09T10:48:46;3.92;;;1.60;;
46889;SDS011;32625;51.080;16.970;2022-09-09T10:51:51;2.47;;;1.40;;
46889;SDS011;32625;51.080;16.970;2022-09-09T10:57:08;3.40;;;1.67;;
46889;SDS011;32625;51.080;16.970;2022-09-09T10:59:48;6.28;;;1.50;;
46889;SDS011;32625;51.080;16.970;2022-09-09T11:10:11;4.10;;;1.40;;
46889;SDS011;32625;51.080;16.970;2022-09-09T11:12:54;4.75;;;1.67;;
46889;SDS011;32625;51.080;16.970;2022-09-09T11:15:35;3.65;;;1.50;;
46889;SDS011;32625;51.080;16.970;2022-09-09T11:18:10;5.63;;;1.88;;
46889;SDS011;32625;51.080;16.970;2022-09-09T11:20:44;4.32;;;1.50;;
46889;SDS011;32625;51.080;16.970;2022-09-09T11:23:17;4.40;;;1.40;;
46889;SDS011;32625;51.080;16.970;2022-09-09T11:25:58;4.18;;;1.35;;
46889;SDS011;32625;51.080;16.970;2022-09-09T11:39:38;2.85;;;1.77;;
46889;SDS011;32625;51.080;16.970;2022-09-09T11:42:23;3.13;;;1.60;;
46889;SDS011;32625;51.080;16.970;2022-09-09T11:44:51;4.53;;;1.75;;
46889;SDS011;32625;51.080;16.970;2022-09-09T11:47:27;2.75;;;1.63;;
46889;SDS011;32625;51.080;16.970;2022-09-09T11:52:45;5.22;;;1.83;;
46889;SDS011;32625;51.080;16.970;2022-09-09T11:55:27;4.70;;;1.58;;
46889;SDS011;32625;51.080;16.970;2022-09-09T11:58:00;10.43;;;3.05;;
46889;SDS011;32625;51.080;16.970;2022-09-09T12:00:34;3.72;;;1.58;;
46889;SDS011;32625;51.080;16.970;2022-09-09T12:06:19;4.30;;;2.30;;
46889;SDS011;32625;51.080;16.970;2022-09-09T12:08:58;4.18;;;2.08;;
46889;SDS011;32625;51.080;16.970;2022-09-09T12:11:34;3.45;;;1.90;;
46889;SDS011;32625;51.080;16.970;2022-09-09T12:14:01;4.82;;;1.60;;
46889;SDS011;32625;51.080;16.970;2022-09-09T12:16:37;4.70;;;1.85;;
46889;SDS011;32625;51.080;16.970;2022-09-09T12:19:16;3.55;;;1.92;;
46889;SDS011;32625;51.080;16.970;2022-09-09T12:22:00;2.83;;;1.80;;
46889;SDS011;32625;51.080;16.970;2022-09-09T12:24:49;6.70;;;1.80;;
46889;SDS011;32625;51.080;16.970;2022-09-09T12:27:31;5.80;;;1.80;;
46889;SDS011;32625;51.080;16.970;2022-09-09T12:30:10;7.30;;;1.58;;
46889;SDS011;32625;51.080;16.970;2022-09-09T12:32:41;6.03;;;2.72;;
46889;SDS011;32625;51.080;16.970;2022-09-09T12:35:11;3.20;;;1.60;;
46889;SDS011;32625;51.080;16.970;2022-09-09T12:40:37;6.50;;;2.65;;
46889;SDS011;32625;51.080;16.970;2022-09-09T12:43:19;4.45;;;1.80;;
46889;SDS011;32625;51.080;16.970;2022-09-09T12:45:49;2.65;;;1.65;;
46889;SDS011;32625;51.080;16.970;2022-09-09T12:48:30;3.60;;;1.60;;
46889;SDS011;32625;51.080;16.970;2022-09-09T12:51:19;5.03;;;1.80;;
46889;SDS011;32625;51.080;16.970;2022-09-09T12:53:52;2.45;;;1.73;;
46889;SDS011;32625;51.080;16.970;2022-09-09T12:56:29;4.55;;;1.90;;
46889;SDS011;32625;51.080;16.970;2022-09-09T12:58:58;5.97;;;1.67;;
46889;SDS011;32625;51.080;16.970;2022-09-09T13:01:28;1.95;;;1.48;;
46889;SDS011;32625;51.080;16.970;2022-09-09T13:04:15;1.92;;;1.65;;
46889;SDS011;32625;51.080;16.970;2022-09-09T13:06:46;9.18;;;2.00;;
46889;SDS011;32625;51.080;16.970;2022-09-09T13:12:33;3.65;;;2.08;;
46889;SDS011;32625;51.080;16.970;2022-09-09T13:15:00;4.82;;;2.03;;
46889;SDS011;32625;51.080;16.970;2022-09-09T13:20:57;8.65;;;2.75;;
46889;SDS011;32625;51.080;16.970;2022-09-09T13:23:32;8.48;;;2.10;;
46889;SDS011;32625;51.080;16.970;2022-09-09T13:26:23;8.07;;;1.92;;
46889;SDS011;32625;51.080;16.970;2022-09-09T13:29:08;4.88;;;1.70;;
46889;SDS011;32625;51.080;16.970;2022-09-09T13:31:45;3.00;;;1.75;;
46889;SDS011;32625;51.080;16.970;2022-09-09T13:34:28;2.50;;;1.65;;
46889;SDS011;32625;51.080;16.970;2022-09-09T13:37:01;2.55;;;1.70;;
46889;SDS011;32625;51.080;16.970;2022-09-09T13:39:33;3.00;;;1.77;;
46889;SDS011;32625;51.080;16.970;2022-09-09T13:42:03;4.18;;;2.00;;
46889;SDS011;32625;51.080;16.970;2022-09-09T13:44:31;4.63;;;1.77;;
46889;SDS011;32625;51.080;16.970;2022-09-09T13:49:41;3.05;;;1.70;;
46889;SDS011;32625;51.080;16.970;2022-09-09T13:52:18;4.47;;;1.88;;
46889;SDS011;32625;51.080;16.970;2022-09-09T13:54:52;2.20;;;1.70;;
46889;SDS011;32625;51.080;16.970;2022-09-09T13:57:24;2.80;;;1.50;;
46889;SDS011;32625;51.080;16.970;2022-09-09T13:59:52;3.33;;;1.55;;
46889;SDS011;32625;51.080;16.970;2022-09-09T14:02:36;3.35;;;1.70;;
46889;SDS011;32625;51.080;16.970;2022-09-09T14:05:07;3.10;;;1.60;;
46889;SDS011;32625;51.080;16.970;2022-09-09T14:07:34;4.88;;;2.15;;
46889;SDS011;32625;51.080;16.970;2022-09-09T14:10:01;7.03;;;2.03;;
46889;SDS011;32625;51.080;16.970;2022-09-09T14:12:29;7.55;;;2.15;;
46889;SDS011;32625;51.080;16.970;2022-09-09T14:14:56;7.57;;;2.10;;
46889;SDS011;32625;51.080;16.970;2022-09-09T14:17:23;4.85;;;1.98;;
46889;SDS011;32625;51.080;16.970;2022-09-09T14:19:51;3.05;;;1.80;;
46889;SDS011;32625;51.080;16.970;2022-09-09T14:22:18;4.22;;;1.90;;
46889;SDS011;32625;51.080;16.970;2022-09-09T14:24:45;3.47;;;2.00;;
46889;SDS011;32625;51.080;16.970;2022-09-09T14:27:12;2.33;;;1.95;;
46889;SDS011;32625;51.080;16.970;2022-09-09T14:29:40;2.33;;;1.70;;
46889;SDS011;32625;51.080;16.970;2022-09-09T14:32:07;2.70;;;1.60;;
46889;SDS011;32625;51.080;16.970;2022-09-09T14:34:38;6.03;;;1.85;;
46889;SDS011;32625;51.080;16.970;2022-09-09T14:37:05;3.45;;;2.00;;
46889;SDS011;32625;51.080;16.970;2022-09-09T14:39:32;2.78;;;1.63;;
46889;SDS011;32625;51.080;16.970;2022-09-09T14:41:59;2.88;;;1.77;;
46889;SDS011;32625;51.080;16.970;2022-09-09T14:44:27;4.53;;;1.90;;
46889;SDS011;32625;51.080;16.970;2022-09-09T14:46:54;2.72;;;1.80;;
46889;SDS011;32625;51.080;16.970;2022-09-09T14:49:21;3.47;;;1.73;;
46889;SDS011;32625;51.080;16.970;2022-09-09T14:51:48;3.63;;;1.98;;
46889;SDS011;32625;51.080;16.970;2022-09-09T14:54:15;5.22;;;1.95;;
46889;SDS011;32625;51.080;16.970;2022-09-09T14:56:44;2.03;;;1.77;;
46889;SDS011;32625;51.080;16.970;2022-09-09T14:59:11;3.35;;;1.85;;
46889;SDS011;32625;51.080;16.970;2022-09-09T15:01:39;2.80;;;1.52;;
46889;SDS011;32625;51.080;16.970;2022-09-09T15:04:07;1.70;;;1.52;;
46889;SDS011;32625;51.080;16.970;2022-09-09T15:06:38;2.72;;;1.80;;
46889;SDS011;32625;51.080;16.970;2022-09-09T15:09:05;3.78;;;2.05;;
46889;SDS011;32625;51.080;16.970;2022-09-09T15:11:33;3.58;;;1.92;;
46889;SDS011;32625;51.080;16.970;2022-09-09T15:14:05;4.45;;;2.15;;
46889;SDS011;32625;51.080;16.970;2022-09-09T15:16:33;3.92;;;2.20;;
46889;SDS011;32625;51.080;16.970;2022-09-09T15:19:01;3.72;;;2.15;;
46889;SDS011;32625;51.080;16.970;2022-09-09T15:21:30;3.63;;;2.05;;
46889;SDS011;32625;51.080;16.970;2022-09-09T15:23:58;3.28;;;2.03;;
46889;SDS011;32625;51.080;16.970;2022-09-09T15:26:26;4.93;;;2.38;;
46889;SDS011;32625;51.080;16.970;2022-09-09T15:28:54;2.58;;;2.15;;
46889;SDS011;32625;51.080;16.970;2022-09-09T15:31:22;3.47;;;1.80;;
46889;SDS011;32625;51.080;16.970;2022-09-09T15:33:51;4.63;;;2.25;;
46889;SDS011;32625;51.080;16.970;2022-09-09T15:36:32;3.58;;;1.83;;
46889;SDS011;32625;51.080;16.970;2022-09-09T15:39:01;2.50;;;1.90;;
46889;SDS011;32625;51.080;16.970;2022-09-09T15:41:30;4.43;;;1.83;;
46889;SDS011;32625;51.080;16.970;2022-09-09T15:43:58;2.85;;;2.33;;
46889;SDS011;32625;51.080;16.970;2022-09-09T15:46:33;4.65;;;2.47;;
46889;SDS011;32625;51.080;16.970;2022-09-09T15:49:09;4.45;;;2.10;;
46889;SDS011;32625;51.080;16.970;2022-09-09T15:51:37;2.13;;;1.92;;
46889;SDS011;32625;51.080;16.970;2022-09-09T15:54:10;5.35;;;2.20;;
46889;SDS011;32625;51.080;16.970;2022-09-09T15:56:39;3.95;;;1.83;;
46889;SDS011;32625;51.080;16.970;2022-09-09T15:59:06;2.50;;;2.15;;
46889;SDS011;32625;51.080;16.970;2022-09-09T16:01:35;6.57;;;2.22;;
46889;SDS011;32625;51.080;16.970;2022-09-09T16:04:02;5.25;;;2.00;;
46889;SDS011;32625;51.080;16.970;2022-09-09T16:06:30;4.00;;;2.17;;
46889;SDS011;32625;51.080;16.970;2022-09-09T16:08:58;2.97;;;2.50;;
46889;SDS011;32625;51.080;16.970;2022-09-09T16:11:30;4.50;;;2.17;;
46889;SDS011;32625;51.080;16.970;2022-09-09T16:13:59;7.47;;;2.47;;
46889;SDS011;32625;51.080;16.970;2022-09-09T16:16:27;5.05;;;2.22;;
46889;SDS011;32625;51.080;16.970;2022-09-09T16:19:00;4.90;;;2.17;;
46889;SDS011;32625;51.080;16.970;2022-09-09T16:21:31;3.90;;;2.60;;
46889;SDS011;32625;51.080;16.970;2022-09-09T16:24:07;4.35;;;2.58;;
46889;SDS011;32625;51.080;16.970;2022-09-09T16:26:36;7.15;;;3.38;;
46889;SDS011;32625;51.080;16.970;2022-09-09T16:29:05;7.45;;;4.93;;
46889;SDS011;32625;51.080;16.970;2022-09-09T16:31:32;5.53;;;4.15;;
46889;SDS011;32625;51.080;16.970;2022-09-09T16:34:00;4.75;;;3.85;;
46889;SDS011;32625;51.080;16.970;2022-09-09T16:36:30;3.80;;;3.47;;
46889;SDS011;32625;51.080;16.970;2022-09-09T16:39:02;3.60;;;2.50;;
46889;SDS011;32625;51.080;16.970;2022-09-09T16:41:31;4.68;;;2.72;;
46889;SDS011;32625;51.080;16.970;2022-09-09T16:44:00;5.28;;;2.70;;
46889;SDS011;32625;51.080;16.970;2022-09-09T16:46:30;4.03;;;2.70;;
46889;SDS011;32625;51.080;16.970;2022-09-09T16:48:59;6.13;;;2.80;;
46889;SDS011;32625;51.080;16.970;2022-09-09T16:51:31;4.55;;;3.03;;
46889;SDS011;32625;51.080;16.970;2022-09-09T16:54:01;4.03;;;2.50;;
46889;SDS011;32625;51.080;16.970;2022-09-09T16:56:30;4.15;;;3.20;;
46889;SDS011;32625;51.080;16.970;2022-09-09T16:59:01;5.13;;;3.22;;
46889;SDS011;32625;51.080;16.970;2022-09-09T17:01:32;8.73;;;2.70;;
46889;SDS011;32625;51.080;16.970;2022-09-09T17:04:05;3.90;;;2.45;;
46889;SDS011;32625;51.080;16.970;2022-09-09T17:06:34;5.50;;;2.50;;
46889;SDS011;32625;51.080;16.970;2022-09-09T17:09:04;4.15;;;2.67;;
46889;SDS011;32625;51.080;16.970;2022-09-09T17:11:33;7.22;;;2.40;;
46889;SDS011;32625;51.080;16.970;2022-09-09T17:14:03;4.55;;;3.00;;
46889;SDS011;32625;51.080;16.970;2022-09-09T17:16:32;3.35;;;2.40;;
46889;SDS011;32625;51.080;16.970;2022-09-09T17:19:00;3.30;;;2.60;;
46889;SDS011;32625;51.080;16.970;2022-09-09T17:21:30;5.47;;;2.70;;
46889;SDS011;32625;51.080;16.970;2022-09-09T17:23:58;7.32;;;2.63;;
46889;SDS011;32625;51.080;16.970;2022-09-09T17:26:27;4.72;;;2.80;;
46889;SDS011;32625;51.080;16.970;2022-09-09T17:28:56;4.55;;;2.60;;
46889;SDS011;32625;51.080;16.970;2022-09-09T17:31:27;6.38;;;2.40;;
46889;SDS011;32625;51.080;16.970;2022-09-09T17:33:55;5.30;;;2.83;;
46889;SDS011;32625;51.080;16.970;2022-09-09T17:36:24;3.58;;;2.50;;
46889;SDS011;32625;51.080;16.970;2022-09-09T17:38:53;6.80;;;2.55;;
46889;SDS011;32625;51.080;16.970;2022-09-09T17:41:33;4.10;;;2.60;;
46889;SDS011;32625;51.080;16.970;2022-09-09T17:44:05;4.22;;;2.67;;
46889;SDS011;32625;51.080;16.970;2022-09-09T17:46:42;6.10;;;2.47;;
46889;SDS011;32625;51.080;16.970;2022-09-09T17:49:10;3.45;;;2.42;;
46889;SDS011;32625;51.080;16.970;2022-09-09T17:51:40;5.18;;;3.03;;
46889;SDS011;32625;51.080;16.970;2022-09-09T17:54:32;5.45;;;2.80;;
46889;SDS011;32625;51.080;16.970;2022-09-09T17:57:00;4.85;;;2.83;;
46889;SDS011;32625;51.080;16.970;2022-09-09T17:59:32;4.75;;;2.80;;
46889;SDS011;32625;51.080;16.970;2022-09-09T18:01:59;6.82;;;3.20;;
46889;SDS011;32625;51.080;16.970;2022-09-09T18:04:27;5.50;;;3.30;;
46889;SDS011;32625;51.080;16.970;2022-09-09T18:10:14;7.03;;;3.40;;
46889;SDS011;32625;51.080;16.970;2022-09-09T18:12:41;6.57;;;3.75;;
46889;SDS011;32625;51.080;16.970;2022-09-09T18:15:10;5.53;;;3.70;;
46889;SDS011;32625;51.080;16.970;2022-09-09T18:17:46;6.35;;;3.38;;
46889;SDS011;32625;51.080;16.970;2022-09-09T18:23:35;5.03;;;2.88;;
46889;SDS011;32625;51.080;16.970;2022-09-09T18:26:13;4.35;;;3.40;;